Time;durP1;ratioP1;P1;durP2;ratioP2;P2;SDS_P1;SDS_P2;PMS_P1;PMS_P2;Temp;Humidity;BMP_temperature;BMP_pressure;BME280_temperature;BME280_humidity;BME280_pressure;Samples;Min_cycle;Max_cycle;Signal;HPM_P1;HPM_P2
2022/01/05 00:00:55;;;;;;;33.47;13.15;;;;;;;-3.12;65.43;97646.31;5071686;28;20047;-57
2022/01/05 00:03:21;;;;;;;24.45;11.75;;;;;;;-3.27;66.01;97635.28;5071899;28;20044;-56
2022/01/05 00:05:47;;;;;;;32.85;13.60;;;;;;;-3.35;66.05;97635.44;5071749;28;20044;-57
2022/01/05 00:08:14;;;;;;;29.75;12.90;;;;;;;-3.27;66.08;97635.28;5071806;28;20109;-56
2022/01/05 00:10:40;;;;;;;33.22;13.23;;;;;;;-3.29;66.16;97645.06;5071357;28;20043;-55
2022/01/05 00:13:05;;;;;;;30.50;13.25;;;;;;;-3.28;66.49;97651.81;5071706;28;20048;-57
2022/01/05 00:15:31;;;;;;;36.03;12.90;;;;;;;-3.44;66.06;97637.41;5071333;28;20044;-55
2022/01/05 00:17:57;;;;;;;25.70;11.32;;;;;;;-3.49;67.10;97644.94;5071832;28;20128;-58
2022/01/05 00:20:24;;;;;;;29.02;12.63;;;;;;;-3.55;66.98;97630.94;5071285;28;20502;-57
2022/01/05 00:22:50;;;;;;;31.67;12.48;;;;;;;-3.52;66.81;97637.53;5071609;28;20052;-57
2022/01/05 00:25:16;;;;;;;29.58;12.95;;;;;;;-3.53;66.88;97635.91;5071487;28;20498;-57
2022/01/05 00:27:41;;;;;;;31.02;12.68;;;;;;;-3.44;66.78;97634.81;5069366;28;20067;-56
2022/01/05 00:30:08;;;;;;;27.33;11.80;;;;;;;-3.50;67.33;97633.78;5071222;28;20040;-55
2022/01/05 00:32:34;;;;;;;27.08;12.32;;;;;;;-3.40;67.25;97630.03;5071186;28;20048;-57
2022/01/05 00:35:00;;;;;;;33.90;12.30;;;;;;;-3.33;67.52;97636.84;5071147;28;20048;-55
2022/01/05 00:37:26;;;;;;;31.95;12.45;;;;;;;-3.32;66.51;97628.09;5069977;28;20102;-57
2022/01/05 00:39:52;;;;;;;28.58;11.82;;;;;;;-3.49;67.64;97626.81;5071150;28;20553;-56
2022/01/05 00:42:18;;;;;;;29.55;11.85;;;;;;;-3.46;67.71;97622.03;5071257;28;20044;-57
2022/01/05 00:44:43;;;;;;;27.60;11.93;;;;;;;-3.51;67.80;97614.03;5069823;28;20028;-58
2022/01/05 00:47:09;;;;;;;30.23;11.60;;;;;;;-3.49;67.27;97612.06;5071162;28;20055;-57
2022/01/05 00:49:36;;;;;;;26.50;12.45;;;;;;;-3.47;67.79;97615.25;5071327;28;20036;-58
2022/01/05 00:52:03;;;;;;;36.22;14.32;;;;;;;-3.46;67.71;97619.44;5070953;28;20045;-57
2022/01/05 00:54:29;;;;;;;27.75;12.40;;;;;;;-3.58;68.08;97609.81;5071003;28;20509;-55
2022/01/05 00:56:54;;;;;;;31.17;13.60;;;;;;;-3.51;68.49;97605.47;5070917;28;20083;-56
2022/01/05 00:59:20;;;;;;;32.17;12.80;;;;;;;-3.44;67.35;97607.09;5071201;28;20041;-53
2022/01/05 01:01:46;;;;;;;31.48;13.10;;;;;;;-3.52;67.27;97607.25;5070792;28;20040;-55
2022/01/05 01:04:12;;;;;;;32.42;14.32;;;;;;;-3.51;67.49;97608.84;5070851;28;20052;-56
2022/01/05 01:06:38;;;;;;;31.10;13.15;;;;;;;-3.52;67.94;97604.66;5074269;28;20036;-56
2022/01/05 01:09:04;;;;;;;37.80;14.30;;;;;;;-3.50;67.55;97602.69;5074644;28;20068;-56
2022/01/05 01:11:30;;;;;;;38.47;14.30;;;;;;;-3.61;67.88;97602.44;5056650;28;20071;-56
2022/01/05 01:13:56;;;;;;;34.22;13.23;;;;;;;-3.82;68.42;97596.31;5074877;28;20049;-58
2022/01/05 01:16:22;;;;;;;30.85;13.02;;;;;;;-3.68;68.33;97590.25;5074813;28;20557;-55
2022/01/05 01:18:48;;;;;;;32.35;13.02;;;;;;;-3.67;68.50;97591.84;5073497;28;20485;-58
2022/01/05 01:21:14;;;;;;;30.35;11.82;;;;;;;-3.58;67.97;97597.66;5073254;28;20566;-55
2022/01/05 01:23:42;;;;;;;30.40;13.07;;;;;;;-3.56;68.54;97592.28;5073318;28;20040;-55
2022/01/05 01:26:08;;;;;;;34.92;14.07;;;;;;;-3.66;68.75;97590.84;5074514;28;20440;-55
2022/01/05 01:28:34;;;;;;;28.45;12.70;;;;;;;-3.66;68.43;97585.66;5074773;28;20070;-54
2022/01/05 01:31:00;;;;;;;30.02;13.32;;;;;;;-3.74;68.80;97582.41;5074491;28;20041;-55
2022/01/05 01:33:26;;;;;;;32.90;14.60;;;;;;;-3.72;68.97;97581.25;5074689;28;20047;-54
2022/01/05 01:35:52;;;;;;;29.55;13.18;;;;;;;-3.68;68.84;97579.88;5073078;28;20121;-56
2022/01/05 01:38:18;;;;;;;34.28;14.23;;;;;;;-3.58;68.73;97576.94;5073285;28;20592;-54
2022/01/05 01:40:43;;;;;;;29.52;13.05;;;;;;;-3.52;69.15;97580.56;5071637;28;20039;-55
2022/01/05 01:43:09;;;;;;;33.92;14.45;;;;;;;-3.51;68.95;97577.75;5073159;28;20048;-57
2022/01/05 01:45:35;;;;;;;31.92;14.25;;;;;;;-3.52;68.56;97573.59;5071649;28;20052;-57
2022/01/05 01:48:01;;;;;;;29.00;12.18;;;;;;;-3.60;69.41;97571.16;5072679;28;20045;-56
2022/01/05 01:50:27;;;;;;;29.35;13.20;;;;;;;-3.55;69.22;97565.41;5054806;28;20040;-55
2022/01/05 01:52:53;;;;;;;35.22;15.15;;;;;;;-3.66;69.66;97564.16;5073037;28;20490;-56
2022/01/05 01:55:20;;;;;;;33.58;13.60;;;;;;;-3.69;69.43;97567.91;5072916;28;20075;-55
2022/01/05 01:57:46;;;;;;;28.63;13.18;;;;;;;-3.71;69.63;97562.13;5071581;28;20048;-58
2022/01/05 02:00:13;;;;;;;32.33;14.35;;;;;;;-3.64;69.80;97559.59;5071803;28;20040;-57
2022/01/05 02:02:43;;;;;;;34.45;14.32;;;;;;;-3.62;69.87;97547.22;5071503;28;20051;-56
2022/01/05 02:05:09;;;;;;;31.67;13.25;;;;;;;-3.59;70.32;97549.44;5072849;28;20493;-55
2022/01/05 02:07:35;;;;;;;30.92;13.88;;;;;;;-3.63;70.45;97548.22;5071607;28;20056;-55
2022/01/05 02:10:03;;;;;;;32.13;13.43;;;;;;;-3.63;69.61;97547.44;5072695;28;20064;-55
2022/01/05 02:12:29;;;;;;;33.55;14.40;;;;;;;-3.64;69.87;97545.84;5071220;28;20508;-55
2022/01/05 02:14:56;;;;;;;30.23;13.70;;;;;;;-3.56;70.14;97545.66;5071436;28;20064;-55
2022/01/05 02:17:29;;;;;;;34.67;14.00;;;;;;;-3.56;70.43;97541.31;5054473;28;20036;-56
2022/01/05 02:19:55;;;;;;;36.92;15.27;;;;;;;-3.56;69.98;97537.88;5071056;28;20044;-56
2022/01/05 02:22:22;;;;;;;38.20;15.07;;;;;;;-3.64;70.15;97531.09;5072529;28;20144;-53
2022/01/05 02:24:48;;;;;;;31.10;14.35;;;;;;;-3.63;70.41;97537.88;5071317;28;20068;-53
2022/01/05 02:27:15;;;;;;;36.22;15.00;;;;;;;-3.58;70.15;97534.72;5072269;28;20141;-53
2022/01/05 02:29:41;;;;;;;33.42;14.93;;;;;;;-3.53;69.92;97533.16;5072329;28;20471;-54
2022/01/05 02:32:07;;;;;;;36.05;14.27;;;;;;;-3.48;69.91;97524.78;5071108;28;20079;-54
2022/01/05 02:34:33;;;;;;;31.60;14.18;;;;;;;-3.54;70.41;97517.78;5023597;28;1366551;-55
2022/01/05 02:36:59;;;;;;;36.95;15.10;;;;;;;-3.55;70.38;97517.00;5071785;28;20032;-57
2022/01/05 02:39:25;;;;;;;33.30;15.25;;;;;;;-3.51;70.35;97512.22;5072992;28;20041;-56
2022/01/05 02:41:52;;;;;;;32.53;13.95;;;;;;;-3.49;70.54;97512.81;5071664;28;20076;-57
2022/01/05 02:44:19;;;;;;;32.55;14.50;;;;;;;-3.48;70.20;97506.66;5073107;28;20049;-54
2022/01/05 02:46:45;;;;;;;32.13;15.05;;;;;;;-3.51;70.18;97500.06;5071452;28;20406;-56
2022/01/05 02:49:11;;;;;;;33.05;14.85;;;;;;;-3.49;69.43;97510.25;5072733;28;20045;-57
2022/01/05 02:51:36;;;;;;;36.40;13.95;;;;;;;-3.54;69.90;97502.25;5071481;28;20053;-56
2022/01/05 02:54:02;;;;;;;33.15;13.73;;;;;;;-3.49;69.02;97505.06;5072679;28;20185;-58
2022/01/05 02:56:28;;;;;;;36.33;15.35;;;;;;;-3.45;69.36;97501.06;5071136;28;20040;-56
2022/01/05 02:58:54;;;;;;;37.35;14.70;;;;;;;-3.45;69.19;97501.88;5072711;28;20045;-57
2022/01/05 03:01:20;;;;;;;29.58;14.13;;;;;;;-3.46;70.25;97505.47;5072423;28;20043;-56
2022/01/05 03:03:46;;;;;;;33.05;15.15;;;;;;;-3.51;69.76;97499.25;5073010;28;20052;-55
2022/01/05 03:06:12;;;;;;;34.88;14.13;;;;;;;-3.51;69.78;97494.09;5072408;28;20055;-55
2022/01/05 03:08:37;;;;;;;34.15;14.25;;;;;;;-3.50;69.92;97486.13;5072417;28;20135;-56
2022/01/05 03:11:04;;;;;;;33.53;14.32;;;;;;;-3.49;70.30;97497.28;5071119;28;20045;-54
2022/01/05 03:13:30;;;;;;;30.35;13.05;;;;;;;-3.69;69.42;97487.63;5072811;28;20036;-55
2022/01/05 03:15:56;;;;;;;33.17;14.77;;;;;;;-3.60;69.51;97488.28;5054345;28;20052;-58
2022/01/05 03:18:22;;;;;;;29.40;13.43;;;;;;;-3.62;70.78;97487.66;5072698;28;20059;-56
2022/01/05 03:20:49;;;;;;;38.20;14.57;;;;;;;-3.56;70.35;97492.09;5072127;28;20053;-55
2022/01/05 03:23:15;;;;;;;36.08;14.30;;;;;;;-3.45;70.50;97494.09;5070948;28;20136;-55
2022/01/05 03:25:42;;;;;;;34.65;14.40;;;;;;;-3.42;69.99;97485.94;5072100;28;20049;-54
2022/01/05 03:28:08;;;;;;;33.63;13.85;;;;;;;-3.50;69.79;97475.78;5071969;28;20181;-54
2022/01/05 03:30:34;;;;;;;33.17;14.45;;;;;;;-3.47;70.10;97477.16;5071962;28;20583;-55
2022/01/05 03:35:31;;;;;;;35.60;14.55;;;;;;;-3.48;71.03;97467.78;5071041;28;20064;-56
2022/01/05 03:37:58;;;;;;;35.10;14.15;;;;;;;-3.54;70.16;97464.19;5072123;28;20049;-55
2022/01/05 03:40:24;;;;;;;33.97;14.25;;;;;;;-3.47;70.66;97471.97;5072443;28;20457;-54
2022/01/05 03:42:50;;;;;;;33.10;14.35;;;;;;;-3.43;70.22;97462.84;5071211;28;20060;-55
2022/01/05 03:45:16;;;;;;;42.83;14.43;;;;;;;-3.46;70.78;97466.59;5070694;28;20141;-53
2022/01/05 03:47:42;;;;;;;30.80;13.82;;;;;;;-3.46;70.70;97461.44;5071188;28;20193;-55
2022/01/05 03:50:08;;;;;;;34.65;14.93;;;;;;;-3.48;70.07;97463.41;5072201;28;20438;-58
2022/01/05 03:52:35;;;;;;;32.58;15.77;;;;;;;-3.46;69.98;97455.47;5072158;28;20051;-56
2022/01/05 03:55:01;;;;;;;37.20;15.30;;;;;;;-3.45;70.73;97457.84;5071832;28;20051;-56
2022/01/05 03:57:28;;;;;;;32.88;14.43;;;;;;;-3.44;70.06;97456.88;5071682;28;20085;-57
2022/01/05 03:59:54;;;;;;;30.63;13.55;;;;;;;-3.47;69.75;97454.66;5071507;28;20044;-57
2022/01/05 04:02:20;;;;;;;36.40;13.82;;;;;;;-3.49;70.41;97454.03;5071492;28;20051;-57
2022/01/05 04:04:46;;;;;;;40.30;14.40;;;;;;;-3.54;71.37;97447.84;5071661;28;20044;-57
2022/01/05 04:07:13;;;;;;;32.33;13.32;;;;;;;-3.55;70.34;97456.63;5070288;28;20049;-55
2022/01/05 04:09:39;;;;;;;27.60;12.32;;;;;;;-3.55;71.24;97452.25;5071724;28;20094;-55
2022/01/05 04:12:06;;;;;;;34.58;14.48;;;;;;;-3.51;70.49;97447.47;5070155;28;20079;-57
2022/01/05 04:14:32;;;;;;;38.60;15.32;;;;;;;-3.51;70.83;97450.06;5070491;28;20047;-56
2022/01/05 04:16:57;;;;;;;33.63;13.25;;;;;;;-3.51;70.74;97445.66;5071364;28;20402;-53
2022/01/05 04:19:23;;;;;;;39.17;14.48;;;;;;;-3.52;70.94;97438.91;5070343;28;20127;-56
2022/01/05 04:21:50;;;;;;;37.70;14.93;;;;;;;-3.53;71.83;97433.91;5071001;28;20075;-57
2022/01/05 04:24:16;;;;;;;38.05;14.70;;;;;;;-3.51;71.65;97440.47;5070237;28;20041;-54
2022/01/05 04:26:42;;;;;;;36.38;14.52;;;;;;;-3.53;72.37;97436.50;5070924;28;20049;-56
2022/01/05 04:29:08;;;;;;;36.53;14.93;;;;;;;-3.50;71.40;97436.91;5071408;28;20055;-57
2022/01/05 04:31:34;;;;;;;41.13;14.55;;;;;;;-3.50;71.62;97439.50;5069789;28;20041;-56
2022/01/05 04:34:00;;;;;;;38.78;15.80;;;;;;;-3.50;72.16;97429.16;5070938;28;20040;-56
2022/01/05 04:36:26;;;;;;;32.08;14.27;;;;;;;-3.47;71.62;97435.72;5070971;28;20093;-57
2022/01/05 04:38:52;;;;;;;34.65;13.75;;;;;;;-3.42;71.77;97436.72;5071372;28;20052;-57
2022/01/05 04:41:18;;;;;;;38.10;15.32;;;;;;;-3.55;71.38;97428.94;5074130;28;20094;-56
2022/01/05 04:43:44;;;;;;;36.90;15.30;;;;;;;-3.54;71.18;97437.50;5075456;28;20509;-57
2022/01/05 04:46:10;;;;;;;35.47;12.77;;;;;;;-3.61;71.66;97429.72;5074118;28;20079;-54
2022/01/05 04:48:36;;;;;;;34.40;14.57;;;;;;;-3.64;71.92;97437.06;5074065;28;20107;-56
2022/01/05 04:51:03;;;;;;;39.58;15.77;;;;;;;-3.62;72.16;97432.47;5074786;28;20675;-57
2022/01/05 04:53:29;;;;;;;43.80;15.98;;;;;;;-3.74;72.37;97419.31;5057023;28;20036;-54
2022/01/05 04:55:55;;;;;;;34.88;16.08;;;;;;;-3.56;72.88;97431.69;5074584;28;20055;-59
2022/01/05 04:58:21;;;;;;;38.83;16.42;;;;;;;-3.50;72.58;97428.31;5075282;28;20044;-57
2022/01/05 05:00:47;;;;;;;40.17;15.52;;;;;;;-3.55;72.32;97423.75;5074526;28;20044;-54
2022/01/05 05:03:12;;;;;;;38.13;15.95;;;;;;;-3.62;71.63;97417.75;5075199;28;20055;-56
2022/01/05 05:05:39;;;;;;;41.17;17.10;;;;;;;-3.63;72.42;97423.91;5057207;28;20501;-56
2022/01/05 05:08:04;;;;;;;41.38;16.25;;;;;;;-3.69;72.52;97420.31;5075078;28;20041;-58
2022/01/05 05:10:30;;;;;;;40.83;17.10;;;;;;;-3.68;72.29;97414.16;5074961;28;20052;-56
2022/01/05 05:12:56;;;;;;;45.60;16.45;;;;;;;-3.61;71.39;97408.19;5074974;28;20436;-55
2022/01/05 05:15:22;;;;;;;46.03;18.00;;;;;;;-3.57;72.09;97417.16;5074809;28;20049;-56
2022/01/05 05:17:48;;;;;;;38.47;16.52;;;;;;;-3.62;71.85;97404.78;5073455;28;20047;-56
2022/01/05 05:20:14;;;;;;;47.30;18.05;;;;;;;-3.68;71.79;97400.38;5074405;28;20433;-56
2022/01/05 05:22:40;;;;;;;47.63;18.00;;;;;;;-3.63;72.03;97395.44;5073090;28;20105;-56
2022/01/05 05:25:07;;;;;;;39.30;16.67;;;;;;;-3.60;71.22;97382.09;5074571;28;20041;-57
2022/01/05 05:27:33;;;;;;;48.60;17.77;;;;;;;-3.62;71.35;97380.69;5074467;28;20044;-57
2022/01/05 05:29:59;;;;;;;50.40;17.00;;;;;;;-3.68;70.45;97375.31;5074263;28;20678;-57
2022/01/05 05:32:24;;;;;;;41.65;16.60;;;;;;;-3.68;70.87;97370.16;5073157;28;20047;-57
2022/01/05 05:34:50;;;;;;;43.42;17.27;;;;;;;-3.71;71.00;97354.19;5073098;28;20092;-56
2022/01/05 05:37:16;;;;;;;44.03;17.35;;;;;;;-3.69;70.17;97371.13;5072771;28;20048;-55
2022/01/05 05:39:43;;;;;;;51.13;18.52;;;;;;;-3.75;70.51;97376.28;5074348;28;20044;-58
2022/01/05 05:42:09;;;;;;;54.50;18.60;;;;;;;-3.82;70.04;97363.34;5072724;28;20196;-56
2022/01/05 05:44:35;;;;;;;41.95;17.58;;;;;;;-3.85;70.27;97365.50;5074318;28;20043;-56
2022/01/05 05:47:01;;;;;;;42.72;17.77;;;;;;;-3.90;69.68;97358.31;5072583;28;20413;-54
2022/01/05 05:49:27;;;;;;;38.03;17.42;;;;;;;-3.93;70.65;97358.72;5074234;28;20048;-56
2022/01/05 05:51:53;;;;;;;47.03;18.05;;;;;;;-3.98;70.31;97355.91;5072000;28;20460;-54
2022/01/05 05:54:19;;;;;;;43.90;17.42;;;;;;;-3.99;70.52;97354.31;5074079;28;20048;-57
2022/01/05 05:56:45;;;;;;;41.90;17.48;;;;;;;-4.01;69.79;97357.09;5074035;28;20080;-54
2022/01/05 05:59:10;;;;;;;40.65;16.25;;;;;;;-4.08;70.20;97342.53;5073631;28;20116;-57
2022/01/05 06:01:36;;;;;;;43.53;16.88;;;;;;;-4.08;69.88;97348.50;5073695;28;20525;-58
2022/01/05 06:04:02;;;;;;;46.03;17.85;;;;;;;-4.19;70.66;97342.09;5073564;28;20513;-59
2022/01/05 06:06:28;;;;;;;49.75;17.55;;;;;;;-4.24;70.12;97348.84;5072086;28;20036;-59
2022/01/05 06:08:55;;;;;;;43.75;17.17;;;;;;;-4.20;69.88;97344.88;5073054;28;20048;-58
2022/01/05 06:11:21;;;;;;;37.95;15.18;;;;;;;-4.22;70.71;97354.63;5073725;28;20119;-58
2022/01/05 06:13:47;;;;;;;45.63;17.00;;;;;;;-4.33;70.34;97358.53;5073413;28;20055;-59
2022/01/05 06:16:13;;;;;;;48.85;19.25;;;;;;;-4.31;70.29;97353.19;5073346;28;20040;-59
2022/01/05 06:18:39;;;;;;;47.72;17.55;;;;;;;-4.31;70.67;97351.41;5073884;28;20097;-59
2022/01/05 06:21:05;;;;;;;44.60;18.70;;;;;;;-4.23;70.32;97353.03;5073646;28;20565;-58
2022/01/05 06:23:31;;;;;;;36.58;16.13;;;;;;;-4.35;70.21;97348.41;5067132;28;20048;-61
2022/01/05 06:25:56;;;;;;;39.70;16.65;;;;;;;-4.29;70.54;97346.03;5072842;28;20048;-60
2022/01/05 06:28:22;;;;;;;39.78;16.23;;;;;;;-4.30;70.54;97345.22;5071594;28;20044;-56
2022/01/05 06:30:48;;;;;;;36.20;16.10;;;;;;;-4.31;71.03;97346.22;5071116;28;20072;-57
2022/01/05 06:33:14;;;;;;;51.13;18.20;;;;;;;-4.22;70.11;97346.88;5068785;28;20565;-56
2022/01/05 06:35:40;;;;;;;43.22;15.40;;;;;;;-4.20;70.10;97339.72;5072539;28;20066;-55
2022/01/05 06:38:06;;;;;;;48.80;17.58;;;;;;;-4.09;70.01;97335.75;5071560;28;20529;-57
2022/01/05 06:40:32;;;;;;;42.58;16.27;;;;;;;-4.02;69.74;97345.16;5071332;28;20047;-59
2022/01/05 06:42:59;;;;;;;40.85;15.25;;;;;;;-4.01;70.52;97338.19;5072945;28;20455;-57
2022/01/05 06:45:25;;;;;;;42.90;16.35;;;;;;;-4.00;70.14;97339.75;5072446;28;20060;-61
2022/01/05 06:47:51;;;;;;;35.00;15.38;;;;;;;-3.95;69.58;97342.56;5072533;28;20048;-60
2022/01/05 06:50:16;;;;;;;39.92;15.63;;;;;;;-3.89;69.04;97339.19;5072670;28;20047;-56
2022/01/05 06:52:42;;;;;;;41.63;16.45;;;;;;;-3.84;69.63;97321.31;5072284;28;20536;-58
2022/01/05 06:55:09;;;;;;;44.00;17.27;;;;;;;-3.72;69.55;97324.13;5072160;28;20036;-61
2022/01/05 06:57:39;;;;;;;43.20;16.90;;;;;;;-3.79;69.17;97321.53;5072326;28;20040;-58
2022/01/05 07:00:06;;;;;;;37.22;15.45;;;;;;;-3.81;69.36;97325.28;5072647;28;20130;-56
2022/01/05 07:02:31;;;;;;;37.10;15.65;;;;;;;-3.77;69.60;97313.53;5069672;28;20048;-57
2022/01/05 07:04:57;;;;;;;37.90;13.98;;;;;;;-3.68;69.31;97312.34;5072212;28;20410;-61
2022/01/05 07:07:23;;;;;;;35.55;15.68;;;;;;;-3.67;69.32;97301.81;5072371;28;20044;-60
2022/01/05 07:09:49;;;;;;;31.30;13.40;;;;;;;-3.66;69.58;97305.19;5072322;28;20051;-60
2022/01/05 07:12:15;;;;;;;34.75;13.75;;;;;;;-3.66;69.35;97303.41;5070839;28;20044;-58
2022/01/05 07:14:41;;;;;;;34.58;14.27;;;;;;;-3.61;69.19;97292.47;5072048;28;20521;-59
2022/01/05 07:17:07;;;;;;;32.38;14.10;;;;;;;-3.62;69.45;97300.41;5070100;28;20045;-60
2022/01/05 07:19:33;;;;;;;35.72;15.18;;;;;;;-3.54;69.86;97295.03;5072072;28;20055;-61
2022/01/05 07:21:59;;;;;;;39.45;15.57;;;;;;;-3.46;68.52;97285.28;5071745;28;20410;-57
2022/01/05 07:24:25;;;;;;;33.58;14.88;;;;;;;-3.43;69.32;97282.31;5071532;28;20044;-59
2022/01/05 07:26:50;;;;;;;36.80;15.90;;;;;;;-3.35;68.16;97275.31;5070703;28;20055;-57
2022/01/05 07:29:18;;;;;;;38.75;14.70;;;;;;;-3.31;67.84;97276.53;5072012;28;20076;-59
2022/01/05 07:31:45;;;;;;;40.67;15.73;;;;;;;-3.32;68.08;97272.34;5070168;28;20047;-57
2022/01/05 07:34:11;;;;;;;36.83;14.57;;;;;;;-3.46;68.54;97264.56;5071598;28;20121;-60
2022/01/05 07:36:38;;;;;;;38.58;15.80;;;;;;;-3.42;68.48;97267.53;5071531;28;20427;-59
2022/01/05 07:39:05;;;;;;;38.55;16.27;;;;;;;-3.42;68.29;97260.56;5071409;28;20048;-60
2022/01/05 07:41:32;;;;;;;36.80;16.13;;;;;;;-3.35;68.28;97257.19;5071493;28;20106;-60
2022/01/05 07:43:58;;;;;;;35.50;17.20;;;;;;;-3.37;68.18;97256.59;5071370;28;20494;-59
2022/01/05 07:46:24;;;;;;;39.45;17.63;;;;;;;-3.38;67.83;97249.81;5070913;28;20589;-59
2022/01/05 07:48:50;;;;;;;36.67;17.05;;;;;;;-3.34;68.29;97243.25;5071851;28;20131;-59
2022/01/05 07:51:16;;;;;;;38.25;16.80;;;;;;;-3.38;67.90;97245.44;5053101;28;20143;-60
2022/01/05 07:53:42;;;;;;;41.30;17.05;;;;;;;-3.45;68.21;97239.47;5070070;28;20094;-59
2022/01/05 07:56:09;;;;;;;35.42;15.45;;;;;;;-3.50;68.50;97227.13;5071078;28;20071;-59
2022/01/05 07:58:36;;;;;;;32.75;15.35;;;;;;;-3.51;68.66;97222.91;5071365;28;20051;-58
2022/01/05 08:01:03;;;;;;;39.03;17.05;;;;;;;-3.43;68.98;97230.50;5070719;28;20123;-57
2022/01/05 08:03:32;;;;;;;33.90;15.95;;;;;;;-3.44;68.54;97222.94;5071517;28;20106;-60
2022/01/05 08:06:01;;;;;;;41.92;16.60;;;;;;;-3.49;68.77;97213.16;5071404;28;20052;-59
2022/01/05 08:08:28;;;;;;;35.42;15.75;;;;;;;-3.49;69.46;97210.56;5071498;28;20040;-59
2022/01/05 08:10:54;;;;;;;37.47;16.33;;;;;;;-3.51;69.32;97206.59;5071010;28;20048;-56
2022/01/05 08:13:20;;;;;;;36.72;16.85;;;;;;;-3.35;69.14;97202.78;5070030;28;20127;-58
2022/01/05 08:15:46;;;;;;;35.13;16.10;;;;;;;-3.57;68.53;97156.38;5070360;28;20190;-59
2022/01/05 08:18:12;;;;;;;40.65;17.63;;;;;;;-3.25;69.41;97182.44;5071392;28;20383;-59
2022/01/05 08:20:37;;;;;;;39.65;16.20;;;;;;;-3.33;68.84;97183.44;5070985;28;20062;-59
2022/01/05 08:23:03;;;;;;;36.47;14.93;;;;;;;-3.28;69.33;97175.06;5070874;28;20159;-59
2022/01/05 08:25:29;;;;;;;34.05;16.00;;;;;;;-3.21;68.11;97170.66;5069894;28;20049;-58
2022/01/05 08:27:55;;;;;;;38.13;15.02;;;;;;;-3.26;68.34;97163.50;5071259;28;20415;-57
2022/01/05 08:30:26;;;;;;;38.70;15.70;;;;;;;-3.27;68.74;97156.72;5070616;28;20566;-57
2022/01/05 08:32:53;;;;;;;40.55;16.92;;;;;;;-3.22;69.02;97156.13;5069558;28;20037;-59
2022/01/05 08:35:22;;;;;;;35.60;16.00;;;;;;;-3.22;68.69;97146.53;5070624;28;20102;-56
2022/01/05 08:37:48;;;;;;;41.60;15.15;;;;;;;-3.19;68.23;97142.75;5070995;28;20106;-59
2022/01/05 08:40:16;;;;;;;32.95;15.05;;;;;;;-3.16;68.73;97136.38;5071347;28;20041;-57
2022/01/05 08:42:42;;;;;;;35.95;16.70;;;;;;;-3.18;68.53;97130.59;5071174;28;20044;-62
2022/01/05 08:45:08;;;;;;;30.58;12.55;;;;;;;-3.31;68.02;97128.84;5071205;28;20490;-62
2022/01/05 08:47:34;;;;;;;42.20;16.63;;;;;;;-3.39;68.39;97123.88;5071287;28;20123;-57
2022/01/05 08:50:01;;;;;;;31.50;13.13;;;;;;;-3.47;68.78;97117.94;5071216;28;20131;-62
2022/01/05 08:52:26;;;;;;;30.35;15.32;;;;;;;-3.43;69.15;97113.94;5069837;28;20098;-60
2022/01/05 08:54:53;;;;;;;34.78;13.55;;;;;;;-3.37;68.68;97109.72;5069267;28;20051;-58
2022/01/05 08:57:19;;;;;;;30.23;15.00;;;;;;;-3.30;69.34;97109.69;5070802;28;20052;-57
2022/01/05 08:59:45;;;;;;;33.97;14.63;;;;;;;-3.24;68.47;97106.28;5053286;28;20052;-56
2022/01/05 09:02:15;;;;;;;34.28;14.70;;;;;;;-3.28;68.73;97105.13;5053046;28;20547;-57
2022/01/05 09:04:42;;;;;;;26.38;12.02;;;;;;;-3.30;68.28;97083.78;5070987;28;20044;-58
2022/01/05 09:07:08;;;;;;;28.35;13.23;;;;;;;-3.29;68.51;97093.19;5070841;28;20032;-58
2022/01/05 09:09:34;;;;;;;32.72;13.30;;;;;;;-3.33;68.70;97082.41;5069589;28;20067;-56
2022/01/05 09:12:00;;;;;;;37.78;13.50;;;;;;;-3.37;68.94;97078.66;5071295;28;20490;-58
2022/01/05 09:14:26;;;;;;;28.35;12.50;;;;;;;-3.36;69.08;97069.88;5069497;28;20053;-60
2022/01/05 09:16:52;;;;;;;22.92;11.25;;;;;;;-3.37;69.49;97067.50;5070769;28;20128;-58
2022/01/05 09:19:18;;;;;;;29.55;13.20;;;;;;;-3.34;68.56;97064.50;5070905;28;20041;-59
2022/01/05 09:21:48;;;;;;;30.58;13.88;;;;;;;-3.43;68.44;97054.34;5070581;28;20098;-58
2022/01/05 09:24:17;;;;;;;32.33;12.40;;;;;;;-3.40;68.31;97044.59;5071057;28;20049;-58
2022/01/05 09:26:43;;;;;;;31.05;13.05;;;;;;;-3.49;68.87;97042.22;5072833;28;20060;-55
2022/01/05 09:29:10;;;;;;;32.92;13.07;;;;;;;-3.50;68.66;97038.06;5074819;28;20040;-59
2022/01/05 09:31:36;;;;;;;40.22;13.88;;;;;;;-3.41;69.14;97038.63;5074109;28;20047;-59
2022/01/05 09:34:02;;;;;;;36.55;14.93;;;;;;;-3.35;69.46;97026.63;5074017;28;20032;-58
2022/01/05 09:36:43;;;;;;;28.90;12.18;;;;;;;-3.38;68.41;97019.25;5074348;28;20044;-57
2022/01/05 09:41:58;;;;;;;28.23;11.50;;;;;;;-3.51;68.65;97007.16;5073952;28;20044;-58
2022/01/05 09:44:26;;;;;;;19.05;10.20;;;;;;;-3.52;67.95;96990.84;5074216;28;20136;-58
2022/01/05 09:47:10;;;;;;;18.13;8.27;;;;;;;-3.62;68.80;96982.69;5072611;28;20036;-58
2022/01/05 09:49:44;;;;;;;18.73;8.18;;;;;;;-3.72;69.37;96972.00;5073738;28;20045;-58
2022/01/05 09:52:11;;;;;;;24.42;9.02;;;;;;;-3.74;69.02;96961.84;5073444;28;20055;-58
2022/01/05 09:54:42;;;;;;;23.60;9.60;;;;;;;-3.75;68.94;96951.72;5073542;28;20044;-59
2022/01/05 09:57:12;;;;;;;16.48;7.50;;;;;;;-3.75;68.75;96949.13;5073651;28;20085;-58
2022/01/05 09:59:38;;;;;;;22.67;7.78;;;;;;;-3.76;69.82;96943.16;5055530;28;20039;-58
2022/01/05 10:02:07;;;;;;;23.13;8.82;;;;;;;-3.72;69.39;96922.81;5073818;28;20486;-59
2022/01/05 10:04:35;;;;;;;22.15;9.73;;;;;;;-3.70;69.93;96916.44;5073810;28;20139;-56
2022/01/05 10:07:01;;;;;;;23.10;10.30;;;;;;;-3.60;69.77;96917.78;5073642;28;20499;-58
2022/01/05 10:09:27;;;;;;;16.40;7.97;;;;;;;-3.55;69.36;96903.22;5073776;28;20048;-58
2022/01/05 10:11:52;;;;;;;25.00;8.75;;;;;;;-3.50;68.52;96897.38;5073671;28;20501;-57
2022/01/05 10:14:18;;;;;;;19.15;9.18;;;;;;;-3.40;69.03;96891.78;5073741;28;20048;-59
2022/01/05 10:17:01;;;;;;;21.85;9.77;;;;;;;-3.32;69.82;96878.56;5055606;28;20084;-56
2022/01/05 10:19:27;;;;;;;23.08;9.15;;;;;;;-3.23;68.54;96888.47;5073717;28;20055;-57
2022/01/05 10:21:53;;;;;;;16.23;8.18;;;;;;;-3.38;69.08;96879.38;5072154;28;20044;-58
2022/01/05 10:24:40;;;;;;;24.30;10.68;;;;;;;-3.43;69.35;96882.63;5071885;28;20036;-57
2022/01/05 10:27:06;;;;;;;28.08;10.50;;;;;;;-3.50;70.35;96864.53;5072355;28;20771;-56
2022/01/05 10:29:33;;;;;;;19.70;9.25;;;;;;;-3.45;69.79;96862.09;5071714;28;20076;-58
2022/01/05 10:32:01;;;;;;;22.45;9.50;;;;;;;-3.33;70.67;96866.59;5072646;28;20497;-57
2022/01/05 10:34:32;;;;;;;21.08;10.27;;;;;;;-3.39;69.95;96850.09;5073220;28;20328;-58
2022/01/05 10:37:00;;;;;;;27.25;9.90;;;;;;;-3.34;69.64;96844.31;5071113;28;20047;-59
2022/01/05 10:39:37;;;;;;;23.55;11.18;;;;;;;-3.44;69.69;96845.56;5071535;28;20049;-58
2022/01/05 10:42:07;;;;;;;23.25;10.88;;;;;;;-3.46;70.32;96844.19;5055359;28;20053;-56
2022/01/05 10:44:34;;;;;;;32.50;11.45;;;;;;;-3.58;70.99;96831.13;5072974;28;20106;-58
2022/01/05 10:47:00;;;;;;;23.92;9.35;;;;;;;-3.60;70.21;96834.91;5072853;28;20440;-58
2022/01/05 10:49:26;;;;;;;24.20;10.88;;;;;;;-3.68;70.14;96818.66;5072830;28;20537;-58
2022/01/05 10:51:52;;;;;;;31.02;12.82;;;;;;;-3.61;70.52;96823.00;5071526;28;20053;-58
2022/01/05 10:54:23;;;;;;;26.08;10.50;;;;;;;-3.55;70.12;96822.16;5071622;28;20265;-56
2022/01/05 10:56:50;;;;;;;24.27;10.55;;;;;;;-3.54;70.94;96810.78;5072920;28;20036;-58
2022/01/05 10:59:28;;;;;;;23.80;10.85;;;;;;;-3.64;71.04;96795.72;5071108;28;20052;-59
2022/01/05 11:01:54;;;;;;;25.88;10.85;;;;;;;-3.58;70.95;96796.66;5071412;28;20039;-59
2022/01/05 11:04:22;;;;;;;22.52;9.93;;;;;;;-3.68;71.49;96786.75;5065547;28;20044;-59
2022/01/05 11:07:03;;;;;;;25.65;11.65;;;;;;;-3.47;71.92;96788.19;5072319;28;20474;-59
2022/01/05 11:09:31;;;;;;;24.88;11.07;;;;;;;-3.50;71.41;96775.66;5072344;28;20052;-57
2022/01/05 11:11:58;;;;;;;22.30;9.68;;;;;;;-3.46;71.38;96767.28;5072299;28;20047;-59
2022/01/05 11:14:32;;;;;;;30.80;11.95;;;;;;;-3.55;71.17;96762.59;5072571;28;20098;-59
2022/01/05 11:17:04;;;;;;;27.42;12.68;;;;;;;-3.54;71.63;96759.78;5071851;28;20526;-60
2022/01/05 11:19:34;;;;;;;26.67;10.95;;;;;;;-3.63;71.62;96757.66;5053775;28;20044;-59